sensor_id;sensor_type;location;lat;lon;timestamp;temperature;humidity
31369;DHT22;18004;48.416;10.066;2022-11-14T00:00:36;4.50;99.90
31369;DHT22;18004;48.416;10.066;2022-11-14T00:03:03;4.50;99.90
31369;DHT22;18004;48.416;10.066;2022-11-14T00:05:29;4.50;99.90
31369;DHT22;18004;48.416;10.066;2022-11-14T00:07:55;4.50;99.90
31369;DHT22;18004;48.416;10.066;2022-11-14T00:10:21;4.50;99.90
31369;DHT22;18004;48.416;10.066;2022-11-14T00:12:47;4.60;99.90
31369;DHT22;18004;48.416;10.066;2022-11-14T00:15:13;4.50;99.90
31369;DHT22;18004;48.416;10.066;2022-11-14T00:17:39;4.60;99.90
31369;DHT22;18004;48.416;10.066;2022-11-14T00:20:05;4.60;99.90
31369;DHT22;18004;48.416;10.066;2022-11-14T00:22:32;4.60;99.90
31369;DHT22;18004;48.416;10.066;2022-11-14T00:24:57;4.60;99.90
31369;DHT22;18004;48.416;10.066;2022-11-14T00:27:23;4.60;99.90
31369;DHT22;18004;48.416;10.066;2022-11-14T00:29:49;4.60;99.90
31369;DHT22;18004;48.416;10.066;2022-11-14T00:32:14;4.60;99.90
31369;DHT22;18004;48.416;10.066;2022-11-14T00:34:40;4.70;99.90
31369;DHT22;18004;48.416;10.066;2022-11-14T00:37:06;4.70;99.90
31369;DHT22;18004;48.416;10.066;2022-11-14T00:39:31;4.70;99.90
31369;DHT22;18004;48.416;10.066;2022-11-14T00:41:57;4.70;99.90
31369;DHT22;18004;48.416;10.066;2022-11-14T00:44:23;4.70;99.90
31369;DHT22;18004;48.416;10.066;2022-11-14T00:46:48;4.70;99.90
31369;DHT22;18004;48.416;10.066;2022-11-14T00:49:14;4.70;99.90
31369;DHT22;18004;48.416;10.066;2022-11-14T00:51:40;4.70;99.90
31369;DHT22;18004;48.416;10.066;2022-11-14T00:54:05;4.80;99.90
31369;DHT22;18004;48.416;10.066;2022-11-14T00:56:31;4.70;99.90
31369;DHT22;18004;48.416;10.066;2022-11-14T00:58:57;4.70;99.90
31369;DHT22;18004;48.416;10.066;2022-11-14T01:01:22;4.80;99.90
31369;DHT22;18004;48.416;10.066;2022-11-14T01:03:48;4.80;99.90
31369;DHT22;18004;48.416;10.066;2022-11-14T01:06:14;4.80;99.90
31369;DHT22;18004;48.416;10.066;2022-11-14T01:08:41;4.80;99.90
31369;DHT22;18004;48.416;10.066;2022-11-14T01:11:17;4.80;99.90
31369;DHT22;18004;48.416;10.066;2022-11-14T01:13:43;4.80;99.90
31369;DHT22;18004;48.416;10.066;2022-11-14T01:16:09;4.90;99.90
31369;DHT22;18004;48.416;10.066;2022-11-14T01:18:35;4.90;99.90
31369;DHT22;18004;48.416;10.066;2022-11-14T01:21:03;4.90;99.90
31369;DHT22;18004;48.416;10.066;2022-11-14T01:23:32;4.90;99.90
31369;DHT22;18004;48.416;10.066;2022-11-14T01:26:31;4.90;99.90
31369;DHT22;18004;48.416;10.066;2022-11-14T01:28:49;4.90;99.90
31369;DHT22;18004;48.416;10.066;2022-11-14T01:31:16;4.90;99.90
31369;DHT22;18004;48.416;10.066;2022-11-14T01:33:42;4.90;99.90
31369;DHT22;18004;48.416;10.066;2022-11-14T01:36:08;5.00;99.90
31369;DHT22;18004;48.416;10.066;2022-11-14T01:38:34;4.90;99.90
31369;DHT22;18004;48.416;10.066;2022-11-14T01:40:59;4.90;99.90
31369;DHT22;18004;48.416;10.066;2022-11-14T01:43:32;4.90;99.90
31369;DHT22;18004;48.416;10.066;2022-11-14T01:46:05;4.90;99.90
31369;DHT22;18004;48.416;10.066;2022-11-14T01:51:15;4.90;99.90
31369;DHT22;18004;48.416;10.066;2022-11-14T01:53:42;4.90;99.90
31369;DHT22;18004;48.416;10.066;2022-11-14T01:56:08;4.90;99.90
31369;DHT22;18004;48.416;10.066;2022-11-14T01:58:36;4.90;99.90
31369;DHT22;18004;48.416;10.066;2022-11-14T02:01:03;4.90;99.90
31369;DHT22;18004;48.416;10.066;2022-11-14T02:03:29;5.00;99.90
31369;DHT22;18004;48.416;10.066;2022-11-14T02:05:55;5.00;99.90
31369;DHT22;18004;48.416;10.066;2022-11-14T02:08:21;5.00;99.90
31369;DHT22;18004;48.416;10.066;2022-11-14T02:10:46;5.00;99.90
31369;DHT22;18004;48.416;10.066;2022-11-14T02:13:12;5.00;99.90
31369;DHT22;18004;48.416;10.066;2022-11-14T02:15:38;5.00;99.90
31369;DHT22;18004;48.416;10.066;2022-11-14T02:18:04;5.00;99.90
31369;DHT22;18004;48.416;10.066;2022-11-14T02:20:32;5.00;99.90
31369;DHT22;18004;48.416;10.066;2022-11-14T02:22:58;4.90;99.90
31369;DHT22;18004;48.416;10.066;2022-11-14T02:25:24;4.90;99.90
31369;DHT22;18004;48.416;10.066;2022-11-14T02:27:50;4.90;99.90
31369;DHT22;18004;48.416;10.066;2022-11-14T02:30:17;4.90;99.90
31369;DHT22;18004;48.416;10.066;2022-11-14T02:32:43;4.90;99.90
31369;DHT22;18004;48.416;10.066;2022-11-14T02:35:09;4.90;99.90
31369;DHT22;18004;48.416;10.066;2022-11-14T02:37:35;4.90;99.90
31369;DHT22;18004;48.416;10.066;2022-11-14T02:40:01;5.00;99.90
31369;DHT22;18004;48.416;10.066;2022-11-14T02:42:26;4.90;99.90
31369;DHT22;18004;48.416;10.066;2022-11-14T02:44:52;5.00;99.90
31369;DHT22;18004;48.416;10.066;2022-11-14T02:47:18;5.00;99.90
31369;DHT22;18004;48.416;10.066;2022-11-14T02:49:43;5.00;99.90
31369;DHT22;18004;48.416;10.066;2022-11-14T02:52:09;5.00;99.90
31369;DHT22;18004;48.416;10.066;2022-11-14T02:54:35;5.00;99.90
31369;DHT22;18004;48.416;10.066;2022-11-14T02:57:00;5.00;99.90
31369;DHT22;18004;48.416;10.066;2022-11-14T02:59:26;5.00;99.90
31369;DHT22;18004;48.416;10.066;2022-11-14T03:01:51;5.00;99.90
31369;DHT22;18004;48.416;10.066;2022-11-14T03:04:17;5.00;99.90
31369;DHT22;18004;48.416;10.066;2022-11-14T03:06:43;5.00;99.90
31369;DHT22;18004;48.416;10.066;2022-11-14T03:09:08;5.00;99.90
31369;DHT22;18004;48.416;10.066;2022-11-14T03:11:34;5.00;99.90
31369;DHT22;18004;48.416;10.066;2022-11-14T03:14:00;5.00;99.90
31369;DHT22;18004;48.416;10.066;2022-11-14T03:16:25;5.00;99.90
31369;DHT22;18004;48.416;10.066;2022-11-14T03:18:51;5.00;99.90
31369;DHT22;18004;48.416;10.066;2022-11-14T03:21:18;4.90;99.90
31369;DHT22;18004;48.416;10.066;2022-11-14T03:23:44;4.90;99.90
31369;DHT22;18004;48.416;10.066;2022-11-14T03:26:10;4.90;99.90
31369;DHT22;18004;48.416;10.066;2022-11-14T03:28:36;4.90;99.90
31369;DHT22;18004;48.416;10.066;2022-11-14T03:31:03;4.90;99.90
31369;DHT22;18004;48.416;10.066;2022-11-14T03:33:29;5.00;99.90
31369;DHT22;18004;48.416;10.066;2022-11-14T03:35:54;5.00;99.90
31369;DHT22;18004;48.416;10.066;2022-11-14T03:38:20;5.00;99.90
31369;DHT22;18004;48.416;10.066;2022-11-14T03:40:49;5.00;99.90
31369;DHT22;18004;48.416;10.066;2022-11-14T03:43:16;5.00;99.90
31369;DHT22;18004;48.416;10.066;2022-11-14T03:45:42;5.00;99.90
31369;DHT22;18004;48.416;10.066;2022-11-14T03:48:07;5.00;99.90
31369;DHT22;18004;48.416;10.066;2022-11-14T03:50:33;5.00;99.90
31369;DHT22;18004;48.416;10.066;2022-11-14T03:52:59;5.00;99.90
31369;DHT22;18004;48.416;10.066;2022-11-14T03:55:24;5.00;99.90
31369;DHT22;18004;48.416;10.066;2022-11-14T03:57:50;5.10;99.90
31369;DHT22;18004;48.416;10.066;2022-11-14T04:00:16;5.00;99.90
31369;DHT22;18004;48.416;10.066;2022-11-14T04:02:41;5.10;99.90
31369;DHT22;18004;48.416;10.066;2022-11-14T04:05:07;5.10;99.90
31369;DHT22;18004;48.416;10.066;2022-11-14T04:07:33;5.10;99.90
31369;DHT22;18004;48.416;10.066;2022-11-14T04:09:58;5.10;99.90
31369;DHT22;18004;48.416;10.066;2022-11-14T04:12:24;5.10;99.90
31369;DHT22;18004;48.416;10.066;2022-11-14T04:14:49;5.10;99.90
31369;DHT22;18004;48.416;10.066;2022-11-14T04:17:15;5.20;99.90
31369;DHT22;18004;48.416;10.066;2022-11-14T04:19:41;5.20;99.90
31369;DHT22;18004;48.416;10.066;2022-11-14T04:22:06;5.20;99.90
31369;DHT22;18004;48.416;10.066;2022-11-14T04:24:32;5.20;99.90
31369;DHT22;18004;48.416;10.066;2022-11-14T04:26:58;5.20;99.90
31369;DHT22;18004;48.416;10.066;2022-11-14T04:29:23;5.20;99.90
31369;DHT22;18004;48.416;10.066;2022-11-14T04:31:49;5.20;99.90
31369;DHT22;18004;48.416;10.066;2022-11-14T04:34:14;5.20;99.90
31369;DHT22;18004;48.416;10.066;2022-11-14T04:36:40;5.20;99.90
31369;DHT22;18004;48.416;10.066;2022-11-14T04:39:06;5.20;99.90
31369;DHT22;18004;48.416;10.066;2022-11-14T04:41:31;5.20;99.90
31369;DHT22;18004;48.416;10.066;2022-11-14T04:43:57;5.30;99.90
31369;DHT22;18004;48.416;10.066;2022-11-14T04:46:22;5.20;99.90
31369;DHT22;18004;48.416;10.066;2022-11-14T04:48:48;5.20;99.90
31369;DHT22;18004;48.416;10.066;2022-11-14T04:51:14;5.30;99.90
31369;DHT22;18004;48.416;10.066;2022-11-14T04:53:39;5.30;99.90
31369;DHT22;18004;48.416;10.066;2022-11-14T04:56:05;5.30;99.90
31369;DHT22;18004;48.416;10.066;2022-11-14T04:58:31;5.30;99.90
31369;DHT22;18004;48.416;10.066;2022-11-14T05:00:56;5.30;99.90
31369;DHT22;18004;48.416;10.066;2022-11-14T05:03:22;5.30;99.90
31369;DHT22;18004;48.416;10.066;2022-11-14T05:05:48;5.30;99.90
31369;DHT22;18004;48.416;10.066;2022-11-14T05:08:14;5.30;99.90
31369;DHT22;18004;48.416;10.066;2022-11-14T05:10:43;5.40;99.90
31369;DHT22;18004;48.416;10.066;2022-11-14T05:13:09;5.30;99.90
31369;DHT22;18004;48.416;10.066;2022-11-14T05:15:35;5.40;99.90
31369;DHT22;18004;48.416;10.066;2022-11-14T05:18:00;5.40;99.90
31369;DHT22;18004;48.416;10.066;2022-11-14T05:20:26;5.40;99.90
31369;DHT22;18004;48.416;10.066;2022-11-14T05:22:53;5.40;99.90
31369;DHT22;18004;48.416;10.066;2022-11-14T05:25:19;5.30;99.90
31369;DHT22;18004;48.416;10.066;2022-11-14T05:27:46;5.40;99.90
31369;DHT22;18004;48.416;10.066;2022-11-14T05:30:11;5.30;99.90
31369;DHT22;18004;48.416;10.066;2022-11-14T05:32:37;5.40;99.90
31369;DHT22;18004;48.416;10.066;2022-11-14T05:35:03;5.40;99.90
31369;DHT22;18004;48.416;10.066;2022-11-14T05:37:29;5.30;99.90
31369;DHT22;18004;48.416;10.066;2022-11-14T05:39:54;5.30;99.90
31369;DHT22;18004;48.416;10.066;2022-11-14T05:42:20;5.40;99.90
31369;DHT22;18004;48.416;10.066;2022-11-14T05:44:46;5.30;99.90
31369;DHT22;18004;48.416;10.066;2022-11-14T05:47:11;5.40;99.90
31369;DHT22;18004;48.416;10.066;2022-11-14T05:49:37;5.40;99.90
31369;DHT22;18004;48.416;10.066;2022-11-14T05:52:02;5.40;99.90
31369;DHT22;18004;48.416;10.066;2022-11-14T05:54:28;5.40;99.90
31369;DHT22;18004;48.416;10.066;2022-11-14T05:56:54;5.40;99.90
31369;DHT22;18004;48.416;10.066;2022-11-14T05:59:19;5.40;99.90
31369;DHT22;18004;48.416;10.066;2022-11-14T06:01:45;5.40;99.90
31369;DHT22;18004;48.416;10.066;2022-11-14T06:04:11;5.40;99.90
31369;DHT22;18004;48.416;10.066;2022-11-14T06:06:37;5.50;99.90
31369;DHT22;18004;48.416;10.066;2022-11-14T06:09:03;5.50;99.90
31369;DHT22;18004;48.416;10.066;2022-11-14T06:11:28;5.50;99.90
31369;DHT22;18004;48.416;10.066;2022-11-14T06:13:57;5.40;99.90
31369;DHT22;18004;48.416;10.066;2022-11-14T06:16:23;5.40;99.90
31369;DHT22;18004;48.416;10.066;2022-11-14T06:18:51;5.50;99.90
31369;DHT22;18004;48.416;10.066;2022-11-14T06:21:17;5.40;99.90
31369;DHT22;18004;48.416;10.066;2022-11-14T06:23:43;5.50;99.90
31369;DHT22;18004;48.416;10.066;2022-11-14T06:26:19;5.50;99.90
31369;DHT22;18004;48.416;10.066;2022-11-14T06:28:45;5.50;99.90
31369;DHT22;18004;48.416;10.066;2022-11-14T06:31:11;5.40;99.90
31369;DHT22;18004;48.416;10.066;2022-11-14T06:33:37;5.50;99.90
31369;DHT22;18004;48.416;10.066;2022-11-14T06:36:03;5.50;99.90
31369;DHT22;18004;48.416;10.066;2022-11-14T06:38:33;5.50;99.90
31369;DHT22;18004;48.416;10.066;2022-11-14T06:43:28;5.60;99.90
31369;DHT22;18004;48.416;10.066;2022-11-14T06:45:53;5.50;99.90
31369;DHT22;18004;48.416;10.066;2022-11-14T06:48:20;5.60;99.90
31369;DHT22;18004;48.416;10.066;2022-11-14T06:50:51;5.60;99.90
31369;DHT22;18004;48.416;10.066;2022-11-14T06:53:17;5.60;99.90
31369;DHT22;18004;48.416;10.066;2022-11-14T06:55:50;5.60;99.90
31369;DHT22;18004;48.416;10.066;2022-11-14T06:58:16;5.60;99.90
31369;DHT22;18004;48.416;10.066;2022-11-14T07:00:42;5.70;99.90
31369;DHT22;18004;48.416;10.066;2022-11-14T07:03:08;5.80;99.90
31369;DHT22;18004;48.416;10.066;2022-11-14T07:05:33;5.80;99.90
31369;DHT22;18004;48.416;10.066;2022-11-14T07:07:59;5.90;99.90
31369;DHT22;18004;48.416;10.066;2022-11-14T07:10:24;5.90;99.90
31369;DHT22;18004;48.416;10.066;2022-11-14T07:12:50;5.80;99.90
31369;DHT22;18004;48.416;10.066;2022-11-14T07:15:16;5.90;99.90
31369;DHT22;18004;48.416;10.066;2022-11-14T07:17:41;5.90;99.90
31369;DHT22;18004;48.416;10.066;2022-11-14T07:20:07;5.90;99.90
31369;DHT22;18004;48.416;10.066;2022-11-14T07:22:33;6.00;99.90
31369;DHT22;18004;48.416;10.066;2022-11-14T07:24:58;6.00;99.90
31369;DHT22;18004;48.416;10.066;2022-11-14T07:27:24;6.10;99.90
31369;DHT22;18004;48.416;10.066;2022-11-14T07:29:50;6.10;99.90
31369;DHT22;18004;48.416;10.066;2022-11-14T07:32:15;6.20;99.90
31369;DHT22;18004;48.416;10.066;2022-11-14T07:34:41;6.10;99.90
31369;DHT22;18004;48.416;10.066;2022-11-14T07:37:07;6.10;99.90
31369;DHT22;18004;48.416;10.066;2022-11-14T07:39:32;6.20;99.90
31369;DHT22;18004;48.416;10.066;2022-11-14T07:41:58;6.20;99.90
31369;DHT22;18004;48.416;10.066;2022-11-14T07:44:23;6.20;99.90
31369;DHT22;18004;48.416;10.066;2022-11-14T07:46:49;6.30;99.90
31369;DHT22;18004;48.416;10.066;2022-11-14T07:49:16;6.30;99.90
31369;DHT22;18004;48.416;10.066;2022-11-14T07:51:41;6.30;99.90
31369;DHT22;18004;48.416;10.066;2022-11-14T07:54:09;6.30;99.90
31369;DHT22;18004;48.416;10.066;2022-11-14T07:56:35;6.40;99.90
31369;DHT22;18004;48.416;10.066;2022-11-14T07:59:01;6.40;99.90
31369;DHT22;18004;48.416;10.066;2022-11-14T08:01:26;6.30;99.90
31369;DHT22;18004;48.416;10.066;2022-11-14T08:03:52;6.40;99.90
31369;DHT22;18004;48.416;10.066;2022-11-14T08:06:17;6.50;99.90
31369;DHT22;18004;48.416;10.066;2022-11-14T08:08:43;6.50;99.90
31369;DHT22;18004;48.416;10.066;2022-11-14T08:11:09;6.40;99.90
31369;DHT22;18004;48.416;10.066;2022-11-14T08:13:35;6.40;99.90
31369;DHT22;18004;48.416;10.066;2022-11-14T08:16:04;6.40;99.90
31369;DHT22;18004;48.416;10.066;2022-11-14T08:18:30;6.40;99.90
31369;DHT22;18004;48.416;10.066;2022-11-14T08:20:56;6.30;99.90
31369;DHT22;18004;48.416;10.066;2022-11-14T08:23:22;6.20;99.90
31369;DHT22;18004;48.416;10.066;2022-11-14T08:25:47;6.10;99.90
31369;DHT22;18004;48.416;10.066;2022-11-14T08:28:13;6.00;99.90
31369;DHT22;18004;48.416;10.066;2022-11-14T08:30:38;6.10;99.90
31369;DHT22;18004;48.416;10.066;2022-11-14T08:33:05;6.10;99.90
31369;DHT22;18004;48.416;10.066;2022-11-14T08:35:33;6.10;99.90
31369;DHT22;18004;48.416;10.066;2022-11-14T08:37:59;6.10;99.90
31369;DHT22;18004;48.416;10.066;2022-11-14T08:40:25;6.10;99.90
31369;DHT22;18004;48.416;10.066;2022-11-14T08:42:51;6.10;99.90
31369;DHT22;18004;48.416;10.066;2022-11-14T08:45:16;6.20;99.90
31369;DHT22;18004;48.416;10.066;2022-11-14T08:47:49;6.20;99.90
31369;DHT22;18004;48.416;10.066;2022-11-14T08:50:14;6.20;99.90
31369;DHT22;18004;48.416;10.066;2022-11-14T08:52:40;6.30;99.90
31369;DHT22;18004;48.416;10.066;2022-11-14T08:55:05;6.30;99.90
31369;DHT22;18004;48.416;10.066;2022-11-14T08:57:31;6.40;99.90
31369;DHT22;18004;48.416;10.066;2022-11-14T08:59:57;6.40;99.90
31369;DHT22;18004;48.416;10.066;2022-11-14T09:02:22;6.50;99.90
31369;DHT22;18004;48.416;10.066;2022-11-14T09:04:48;6.60;99.90
31369;DHT22;18004;48.416;10.066;2022-11-14T09:07:14;6.70;99.90
31369;DHT22;18004;48.416;10.066;2022-11-14T09:09:39;6.80;99.90
31369;DHT22;18004;48.416;10.066;2022-11-14T09:12:05;6.90;99.90
31369;DHT22;18004;48.416;10.066;2022-11-14T09:14:31;7.00;99.90
31369;DHT22;18004;48.416;10.066;2022-11-14T09:16:56;7.10;99.90
31369;DHT22;18004;48.416;10.066;2022-11-14T09:19:22;7.20;99.90
31369;DHT22;18004;48.416;10.066;2022-11-14T09:21:48;7.30;99.90
31369;DHT22;18004;48.416;10.066;2022-11-14T09:24:13;7.40;99.90
31369;DHT22;18004;48.416;10.066;2022-11-14T09:26:39;7.50;99.90
31369;DHT22;18004;48.416;10.066;2022-11-14T09:29:05;7.50;99.90
31369;DHT22;18004;48.416;10.066;2022-11-14T09:31:30;7.50;99.90
31369;DHT22;18004;48.416;10.066;2022-11-14T09:33:56;7.60;99.90
31369;DHT22;18004;48.416;10.066;2022-11-14T09:36:22;7.70;99.90
31369;DHT22;18004;48.416;10.066;2022-11-14T09:38:49;7.80;99.90
31369;DHT22;18004;48.416;10.066;2022-11-14T09:46:17;8.20;99.90
31369;DHT22;18004;48.416;10.066;2022-11-14T09:48:45;8.50;99.90
31369;DHT22;18004;48.416;10.066;2022-11-14T09:51:14;8.60;99.90
31369;DHT22;18004;48.416;10.066;2022-11-14T09:56:25;8.60;99.90
31369;DHT22;18004;48.416;10.066;2022-11-14T09:58:51;8.70;99.90
31369;DHT22;18004;48.416;10.066;2022-11-14T10:06:31;9.20;99.90
31369;DHT22;18004;48.416;10.066;2022-11-14T10:14:23;9.30;99.90
31369;DHT22;18004;48.416;10.066;2022-11-14T10:19:48;9.40;99.90
31369;DHT22;18004;48.416;10.066;2022-11-14T10:30:13;9.50;99.90
31369;DHT22;18004;48.416;10.066;2022-11-14T10:35:13;9.40;99.90
31369;DHT22;18004;48.416;10.066;2022-11-14T10:37:48;9.50;99.90
31369;DHT22;18004;48.416;10.066;2022-11-14T10:40:21;9.50;99.90
31369;DHT22;18004;48.416;10.066;2022-11-14T10:42:49;9.50;99.90
31369;DHT22;18004;48.416;10.066;2022-11-14T10:45:34;9.60;99.90
31369;DHT22;18004;48.416;10.066;2022-11-14T10:48:14;9.60;99.90
31369;DHT22;18004;48.416;10.066;2022-11-14T10:53:15;9.70;99.90
31369;DHT22;18004;48.416;10.066;2022-11-14T10:55:45;9.70;99.90
31369;DHT22;18004;48.416;10.066;2022-11-14T10:58:11;9.70;99.90
31369;DHT22;18004;48.416;10.066;2022-11-14T11:00:37;9.70;99.90
31369;DHT22;18004;48.416;10.066;2022-11-14T11:03:03;9.60;99.90
31369;DHT22;18004;48.416;10.066;2022-11-14T11:05:29;9.60;99.90
31369;DHT22;18004;48.416;10.066;2022-11-14T11:07:57;9.70;99.90
31369;DHT22;18004;48.416;10.066;2022-11-14T11:10:42;9.80;99.90
31369;DHT22;18004;48.416;10.066;2022-11-14T11:13:50;9.90;99.90
31369;DHT22;18004;48.416;10.066;2022-11-14T11:16:14;9.90;99.90
31369;DHT22;18004;48.416;10.066;2022-11-14T11:18:44;10.00;99.90
31369;DHT22;18004;48.416;10.066;2022-11-14T11:21:11;10.00;99.90
31369;DHT22;18004;48.416;10.066;2022-11-14T11:23:47;10.20;99.90
31369;DHT22;18004;48.416;10.066;2022-11-14T11:26:20;10.30;99.90
31369;DHT22;18004;48.416;10.066;2022-11-14T11:34:11;10.30;99.90
31369;DHT22;18004;48.416;10.066;2022-11-14T11:36:39;10.40;99.90
31369;DHT22;18004;48.416;10.066;2022-11-14T11:39:07;10.50;99.90
31369;DHT22;18004;48.416;10.066;2022-11-14T11:41:34;10.50;99.90
31369;DHT22;18004;48.416;10.066;2022-11-14T11:44:05;10.70;99.90
31369;DHT22;18004;48.416;10.066;2022-11-14T11:49:10;10.80;99.90
31369;DHT22;18004;48.416;10.066;2022-11-14T11:51:37;10.80;99.90
31369;DHT22;18004;48.416;10.066;2022-11-14T11:54:14;10.90;99.90
31369;DHT22;18004;48.416;10.066;2022-11-14T11:56:41;11.00;99.90
31369;DHT22;18004;48.416;10.066;2022-11-14T12:01:52;11.00;99.90
31369;DHT22;18004;48.416;10.066;2022-11-14T12:04:18;11.10;99.90
31369;DHT22;18004;48.416;10.066;2022-11-14T12:07:02;11.10;99.90
31369;DHT22;18004;48.416;10.066;2022-11-14T12:09:32;11.20;99.90
31369;DHT22;18004;48.416;10.066;2022-11-14T12:12:02;11.30;99.90
31369;DHT22;18004;48.416;10.066;2022-11-14T12:14:35;11.40;99.90
31369;DHT22;18004;48.416;10.066;2022-11-14T12:30:27;11.80;99.90
31369;DHT22;18004;48.416;10.066;2022-11-14T12:32:59;11.90;99.90
31369;DHT22;18004;48.416;10.066;2022-11-14T12:35:27;11.90;99.90
31369;DHT22;18004;48.416;10.066;2022-11-14T12:37:55;11.90;99.90
31369;DHT22;18004;48.416;10.066;2022-11-14T12:40:30;11.90;99.90
31369;DHT22;18004;48.416;10.066;2022-11-14T12:42:57;11.90;99.90
31369;DHT22;18004;48.416;10.066;2022-11-14T12:50:39;12.00;99.90
31369;DHT22;18004;48.416;10.066;2022-11-14T12:53:28;12.10;99.90
31369;DHT22;18004;48.416;10.066;2022-11-14T12:56:04;12.20;99.90
31369;DHT22;18004;48.416;10.066;2022-11-14T13:06:54;12.30;99.90
31369;DHT22;18004;48.416;10.066;2022-11-14T13:09:32;12.30;99.90
31369;DHT22;18004;48.416;10.066;2022-11-14T13:11:58;12.50;99.90
31369;DHT22;18004;48.416;10.066;2022-11-14T13:15:11;12.60;99.90
31369;DHT22;18004;48.416;10.066;2022-11-14T13:18:02;12.70;99.90
31369;DHT22;18004;48.416;10.066;2022-11-14T13:20:59;12.70;99.90
31369;DHT22;18004;48.416;10.066;2022-11-14T13:23:58;12.70;99.90
31369;DHT22;18004;48.416;10.066;2022-11-14T13:28:49;12.80;99.90
31369;DHT22;18004;48.416;10.066;2022-11-14T13:33:42;12.70;99.90
31369;DHT22;18004;48.416;10.066;2022-11-14T13:36:08;12.80;99.90
31369;DHT22;18004;48.416;10.066;2022-11-14T13:38:52;12.80;99.90
31369;DHT22;18004;48.416;10.066;2022-11-14T13:41:24;12.80;99.90
31369;DHT22;18004;48.416;10.066;2022-11-14T13:44:01;12.90;99.90
31369;DHT22;18004;48.416;10.066;2022-11-14T13:51:27;13.10;99.90
31369;DHT22;18004;48.416;10.066;2022-11-14T13:53:53;13.10;99.90
31369;DHT22;18004;48.416;10.066;2022-11-14T14:06:32;13.00;99.90
31369;DHT22;18004;48.416;10.066;2022-11-14T14:09:02;13.00;99.90
31369;DHT22;18004;48.416;10.066;2022-11-14T14:11:37;13.00;99.90
31369;DHT22;18004;48.416;10.066;2022-11-14T14:29:25;12.90;99.90
31369;DHT22;18004;48.416;10.066;2022-11-14T14:32:10;13.00;99.90
31369;DHT22;18004;48.416;10.066;2022-11-14T14:34:36;12.90;99.80
31369;DHT22;18004;48.416;10.066;2022-11-14T14:37:02;12.80;99.90
31369;DHT22;18004;48.416;10.066;2022-11-14T14:39:28;12.80;99.90
31369;DHT22;18004;48.416;10.066;2022-11-14T14:41:55;12.80;99.90
31369;DHT22;18004;48.416;10.066;2022-11-14T14:44:23;12.70;99.90
31369;DHT22;18004;48.416;10.066;2022-11-14T14:46:50;12.60;99.90
31369;DHT22;18004;48.416;10.066;2022-11-14T14:49:23;12.60;99.90
31369;DHT22;18004;48.416;10.066;2022-11-14T14:51:53;12.60;99.90
31369;DHT22;18004;48.416;10.066;2022-11-14T14:54:19;12.50;99.90
31369;DHT22;18004;48.416;10.066;2022-11-14T14:56:52;12.40;99.90
31369;DHT22;18004;48.416;10.066;2022-11-14T14:59:20;12.40;99.90
31369;DHT22;18004;48.416;10.066;2022-11-14T15:01:46;12.20;99.90
31369;DHT22;18004;48.416;10.066;2022-11-14T15:04:12;12.20;99.90
31369;DHT22;18004;48.416;10.066;2022-11-14T15:06:39;12.20;99.90
31369;DHT22;18004;48.416;10.066;2022-11-14T15:09:09;12.10;99.90
31369;DHT22;18004;48.416;10.066;2022-11-14T15:11:35;12.10;99.90
31369;DHT22;18004;48.416;10.066;2022-11-14T15:14:03;12.00;99.90
31369;DHT22;18004;48.416;10.066;2022-11-14T15:16:29;12.00;99.90
31369;DHT22;18004;48.416;10.066;2022-11-14T15:18:56;11.90;99.90
31369;DHT22;18004;48.416;10.066;2022-11-14T15:21:23;11.70;99.90
31369;DHT22;18004;48.416;10.066;2022-11-14T15:24:02;11.60;99.90
31369;DHT22;18004;48.416;10.066;2022-11-14T15:26:36;11.60;99.90
31369;DHT22;18004;48.416;10.066;2022-11-14T15:31:48;11.40;99.90
31369;DHT22;18004;48.416;10.066;2022-11-14T15:39:30;11.20;99.90
31369;DHT22;18004;48.416;10.066;2022-11-14T15:44:40;11.00;99.90
31369;DHT22;18004;48.416;10.066;2022-11-14T15:47:11;10.90;99.90
31369;DHT22;18004;48.416;10.066;2022-11-14T15:49:37;10.90;99.90
31369;DHT22;18004;48.416;10.066;2022-11-14T15:52:03;10.90;99.90
31369;DHT22;18004;48.416;10.066;2022-11-14T15:54:39;10.90;99.90
31369;DHT22;18004;48.416;10.066;2022-11-14T15:57:10;10.90;99.90
31369;DHT22;18004;48.416;10.066;2022-11-14T15:59:36;10.90;99.90
31369;DHT22;18004;48.416;10.066;2022-11-14T16:04:46;10.80;99.90
31369;DHT22;18004;48.416;10.066;2022-11-14T16:07:13;10.80;99.90
31369;DHT22;18004;48.416;10.066;2022-11-14T16:09:38;10.80;99.90
31369;DHT22;18004;48.416;10.066;2022-11-14T16:12:05;10.80;99.90
31369;DHT22;18004;48.416;10.066;2022-11-14T16:14:30;10.70;99.90
31369;DHT22;18004;48.416;10.066;2022-11-14T16:16:56;10.60;99.90
31369;DHT22;18004;48.416;10.066;2022-11-14T16:19:22;10.50;99.90
31369;DHT22;18004;48.416;10.066;2022-11-14T16:21:47;10.50;99.90
31369;DHT22;18004;48.416;10.066;2022-11-14T16:24:17;10.50;99.90
31369;DHT22;18004;48.416;10.066;2022-11-14T16:26:43;10.50;99.90
31369;DHT22;18004;48.416;10.066;2022-11-14T16:29:08;10.50;99.90
31369;DHT22;18004;48.416;10.066;2022-11-14T16:31:34;10.50;99.90
31369;DHT22;18004;48.416;10.066;2022-11-14T16:34:00;10.50;99.90
31369;DHT22;18004;48.416;10.066;2022-11-14T16:36:26;10.50;99.10
31369;DHT22;18004;48.416;10.066;2022-11-14T16:38:51;10.60;98.30
31369;DHT22;18004;48.416;10.066;2022-11-14T16:41:21;10.60;97.60
31369;DHT22;18004;48.416;10.066;2022-11-14T16:43:46;10.70;97.70
31369;DHT22;18004;48.416;10.066;2022-11-14T16:46:12;10.70;98.00
31369;DHT22;18004;48.416;10.066;2022-11-14T16:48:37;10.60;98.20
31369;DHT22;18004;48.416;10.066;2022-11-14T16:51:03;10.50;98.20
31369;DHT22;18004;48.416;10.066;2022-11-14T16:53:29;10.40;98.20
31369;DHT22;18004;48.416;10.066;2022-11-14T16:55:55;10.40;98.00
31369;DHT22;18004;48.416;10.066;2022-11-14T16:58:21;10.40;98.10
31369;DHT22;18004;48.416;10.066;2022-11-14T17:00:47;10.30;98.30
31369;DHT22;18004;48.416;10.066;2022-11-14T17:03:13;10.30;98.40
31369;DHT22;18004;48.416;10.066;2022-11-14T17:05:42;10.30;98.40
31369;DHT22;18004;48.416;10.066;2022-11-14T17:08:08;10.20;98.70
31369;DHT22;18004;48.416;10.066;2022-11-14T17:10:38;10.10;98.90
31369;DHT22;18004;48.416;10.066;2022-11-14T17:13:04;10.10;99.10
31369;DHT22;18004;48.416;10.066;2022-11-14T17:15:30;10.00;99.40
31369;DHT22;18004;48.416;10.066;2022-11-14T17:17:56;10.00;99.50
31369;DHT22;18004;48.416;10.066;2022-11-14T17:20:22;9.90;99.90
31369;DHT22;18004;48.416;10.066;2022-11-14T17:22:47;9.90;99.90
31369;DHT22;18004;48.416;10.066;2022-11-14T17:25:13;9.90;99.90
31369;DHT22;18004;48.416;10.066;2022-11-14T17:27:38;9.90;99.90
31369;DHT22;18004;48.416;10.066;2022-11-14T17:30:04;9.80;99.90
31369;DHT22;18004;48.416;10.066;2022-11-14T17:32:30;9.70;99.90
31369;DHT22;18004;48.416;10.066;2022-11-14T17:34:56;9.60;99.90